createdAt,value
2019-01-08T00:00:36.159Z,97096.23
2019-01-08T00:03:29.012Z,97119.16
2019-01-08T00:06:16.484Z,97108.41
2019-01-08T00:09:04.475Z,97099.48
2019-01-08T00:11:48.121Z,97085.28
2019-01-08T00:14:40.901Z,97103.83
2019-01-08T00:17:30.781Z,97097.13
2019-01-08T00:20:14.459Z,97090.81
2019-01-08T00:23:04.239Z,97077.31
2019-01-08T00:25:47.206Z,97063.94
2019-01-08T00:28:43.041Z,97056.12
2019-01-08T00:31:24.163Z,97058.14
2019-01-08T00:34:13.932Z,97057.13
2019-01-08T00:39:55.498Z,97050.33
2019-01-08T00:42:37.517Z,97045.48
2019-01-08T00:48:24.186Z,97033.67
2019-01-08T00:51:07.566Z,97013.78
2019-01-08T00:53:58.618Z,97027.41
2019-01-08T00:56:49.255Z,97035.74
2019-01-08T00:59:39.063Z,97027.20
2019-01-08T01:02:21.746Z,97017.13
2019-01-08T01:05:11.696Z,97021.97
2019-01-08T01:08:01.498Z,97022.52
2019-01-08T01:10:47.124Z,97003.47
2019-01-08T01:13:37.166Z,97009.23
2019-01-08T01:16:20.398Z,97028.78
2019-01-08T01:19:10.330Z,97023.22
2019-01-08T01:22:00.318Z,97019.98
2019-01-08T01:24:50.199Z,97018.39
2019-01-08T01:32:57.238Z,97011.53
2019-01-08T01:35:46.924Z,97004.02
2019-01-08T01:38:30.320Z,97001.40
2019-01-08T01:41:20.032Z,96982.29
2019-01-08T01:44:02.932Z,96984.07
2019-01-08T01:46:52.676Z,96989.52
2019-01-08T01:49:35.275Z,96985.84
2019-01-08T01:52:25.021Z,96980.47
2019-01-08T01:55:14.907Z,96976.84
2019-01-08T01:57:57.524Z,96965.70
2019-01-08T02:00:47.282Z,96961.44
2019-01-08T02:03:34.274Z,96960.45
2019-01-08T02:09:34.502Z,96949.73
2019-01-08T02:12:24.976Z,96942.28
2019-01-08T02:15:15.013Z,96941.48
2019-01-08T02:18:07.088Z,96927.47
2019-01-08T02:20:56.948Z,96939.19
2019-01-08T02:26:43.014Z,96937.50
2019-01-08T02:29:33.194Z,96929.38
2019-01-08T02:32:15.764Z,96916.25
2019-01-08T02:35:05.624Z,96881.43
2019-01-08T02:37:47.730Z,96907.33
2019-01-08T02:40:37.738Z,96895.56
2019-01-08T02:43:24.620Z,96900.33
2019-01-08T02:46:33.506Z,96894.95
2019-01-08T02:49:18.000Z,96870.54
2019-01-08T02:52:07.766Z,96848.00
2019-01-08T02:58:19.301Z,96855.05
2019-01-08T03:01:09.095Z,96851.52
2019-01-08T03:03:53.133Z,96848.59
2019-01-08T03:06:42.910Z,96845.90
2019-01-08T03:09:26.062Z,96847.72
2019-01-08T03:12:15.812Z,96846.92
2019-01-08T03:14:58.189Z,96856.75
2019-01-08T03:17:47.925Z,96845.47
2019-01-08T03:20:30.746Z,96832.00
2019-01-08T03:23:20.816Z,96827.77
2019-01-08T03:26:04.722Z,96810.63
2019-01-08T03:28:54.877Z,96806.76
2019-01-08T03:31:37.477Z,96796.70
2019-01-08T03:34:27.589Z,96805.95
2019-01-08T03:40:21.223Z,96795.03
2019-01-08T03:42:52.225Z,96788.73
2019-01-08T03:45:42.313Z,96786.22
2019-01-08T03:48:25.207Z,96772.22
2019-01-08T03:51:15.047Z,96774.28
2019-01-08T03:57:03.315Z,96748.45
2019-01-08T03:59:53.077Z,96740.48
2019-01-08T04:02:35.047Z,96749.00
2019-01-08T04:05:24.825Z,96741.75
2019-01-08T04:08:07.638Z,96726.04
2019-01-08T04:10:57.463Z,96720.42
2019-01-08T04:13:39.715Z,96713.48
2019-01-08T04:16:29.823Z,96711.05
2019-01-08T04:19:12.075Z,96703.29
2019-01-08T04:22:02.179Z,96701.66
2019-01-08T04:24:48.589Z,96695.19
2019-01-08T04:27:38.326Z,96683.16
2019-01-08T04:30:21.544Z,96688.59
2019-01-08T04:36:03.996Z,96667.45
2019-01-08T04:38:53.837Z,96668.87
2019-01-08T04:41:43.869Z,96675.67
2019-01-08T04:44:33.684Z,96680.47
2019-01-08T04:47:23.523Z,96689.02
2019-01-08T04:50:13.498Z,96682.53
2019-01-08T04:53:03.635Z,96679.08
2019-01-08T04:55:53.507Z,96660.56
2019-01-08T04:58:43.316Z,96667.92
2019-01-08T05:01:33.102Z,96649.84
2019-01-08T05:04:16.607Z,96638.94
2019-01-08T05:07:07.484Z,96608.38
2019-01-08T05:09:57.326Z,96617.87
2019-01-08T05:12:48.138Z,96607.38
2019-01-08T05:15:31.329Z,96597.41
2019-01-08T05:18:21.461Z,96595.22
2019-01-08T05:21:11.563Z,96593.55
2019-01-08T05:24:01.427Z,96596.23
2019-01-08T05:27:09.611Z,96592.59
2019-01-08T05:29:52.881Z,96587.22
2019-01-08T05:32:42.676Z,96573.96
2019-01-08T05:35:27.101Z,96564.89
2019-01-08T05:38:17.161Z,96575.94
2019-01-08T05:41:06.091Z,96569.14
2019-01-08T05:44:16.532Z,96582.43
2019-01-08T05:53:06.624Z,96560.23
2019-01-08T05:55:56.856Z,96563.69
2019-01-08T05:58:40.480Z,96566.70
2019-01-08T06:01:30.233Z,96559.66
2019-01-08T06:04:12.524Z,96544.67
2019-01-08T06:07:21.644Z,96542.08
2019-01-08T06:10:04.190Z,96540.73
2019-01-08T06:12:53.922Z,96536.21
2019-01-08T06:15:37.037Z,96498.16
2019-01-08T06:21:37.080Z,96457.86
2019-01-08T06:24:26.810Z,96484.19
2019-01-08T06:30:38.731Z,96498.33
2019-01-08T06:33:28.840Z,96487.42
2019-01-08T06:36:13.234Z,96480.16
2019-01-08T06:42:08.542Z,96472.75
2019-01-08T06:44:58.332Z,96483.39
2019-01-08T06:47:42.124Z,96471.48
2019-01-08T06:50:31.924Z,96487.00
2019-01-08T06:53:16.044Z,96485.66
2019-01-08T06:56:06.584Z,96480.79
2019-01-08T06:58:48.704Z,96495.37
2019-01-08T07:01:38.526Z,96495.13
2019-01-08T07:04:21.220Z,96506.83
2019-01-08T07:07:11.366Z,96487.78
2019-01-08T07:09:53.697Z,96485.09
2019-01-08T07:12:43.760Z,96496.17
2019-01-08T07:15:26.134Z,96498.77
2019-01-08T07:18:15.872Z,96504.14
2019-01-08T07:20:58.683Z,96507.45
2019-01-08T07:23:48.462Z,96509.34
2019-01-08T07:26:35.238Z,96505.41
2019-01-08T07:29:44.056Z,96494.66
2019-01-08T07:32:27.596Z,96507.75
2019-01-08T07:35:17.335Z,96521.34
2019-01-08T07:37:59.466Z,96513.28
2019-01-08T07:40:49.243Z,96511.30
2019-01-08T07:43:32.246Z,96510.05
2019-01-08T07:46:22.021Z,96516.19
2019-01-08T07:49:04.331Z,96520.45
2019-01-08T07:51:54.109Z,96501.90
2019-01-08T07:54:38.622Z,96507.65
2019-01-08T07:57:28.381Z,96501.41
2019-01-08T08:03:15.284Z,96494.46
2019-01-08T08:06:05.355Z,96495.08
2019-01-08T08:08:48.343Z,96500.91
2019-01-08T08:11:38.149Z,96492.67
2019-01-08T08:14:20.403Z,96497.41
2019-01-08T08:17:10.183Z,96478.05
2019-01-08T08:19:52.872Z,96502.78
2019-01-08T08:22:42.913Z,96490.69
2019-01-08T08:25:24.947Z,96489.25
2019-01-08T08:28:16.601Z,96500.16
2019-01-08T08:31:03.149Z,96487.39
2019-01-08T08:33:52.855Z,96491.37
2019-01-08T08:36:35.723Z,96486.11
2019-01-08T08:39:20.014Z,96485.23
2019-01-08T08:42:10.779Z,96483.23
2019-01-08T08:45:00.594Z,96483.89
2019-01-08T08:47:50.479Z,96492.80
2019-01-08T08:50:40.340Z,96477.68
2019-01-08T08:53:30.171Z,96462.63
2019-01-08T08:56:12.705Z,96484.36
2019-01-08T08:59:02.523Z,96481.58
2019-01-08T09:01:52.315Z,96474.09
2019-01-08T09:04:42.167Z,96475.30
2019-01-08T09:07:32.287Z,96461.61
2019-01-08T09:10:22.123Z,96476.02
2019-01-08T09:13:12.055Z,96483.41
2019-01-08T09:16:01.839Z,96471.41
2019-01-08T09:18:51.986Z,96465.33
2019-01-08T09:21:42.142Z,96446.77
2019-01-08T09:24:31.964Z,96470.92
2019-01-08T09:27:21.784Z,96473.77
2019-01-08T09:30:11.700Z,96468.84
2019-01-08T09:33:01.952Z,96466.70
2019-01-08T09:35:51.802Z,96462.63
2019-01-08T09:38:41.561Z,96457.70
2019-01-08T09:41:31.366Z,96470.59
2019-01-08T09:44:13.859Z,96465.86
2019-01-08T09:47:03.721Z,96465.86
2019-01-08T09:49:53.519Z,96472.47
2019-01-08T09:52:43.337Z,96434.97
2019-01-08T09:55:14.470Z,96465.66
2019-01-08T09:58:04.571Z,96461.81
2019-01-08T10:00:46.896Z,96453.77
2019-01-08T10:03:36.689Z,96455.69
2019-01-08T10:06:26.711Z,96441.36
2019-01-08T10:09:16.482Z,96416.51
2019-01-08T10:17:44.654Z,96434.68
2019-01-08T10:20:27.981Z,96433.05
2019-01-08T10:23:17.770Z,96409.55
2019-01-08T10:26:07.640Z,96423.94
2019-01-08T10:28:57.466Z,96424.53
2019-01-08T10:31:47.660Z,96424.77
2019-01-08T10:37:34.421Z,96421.55
2019-01-08T10:40:43.232Z,96412.52
2019-01-08T10:43:25.716Z,96415.09
2019-01-08T10:46:15.547Z,96418.20
2019-01-08T10:49:05.349Z,96402.81
2019-01-08T10:51:55.150Z,96395.02
2019-01-08T10:54:45.232Z,96392.75
2019-01-08T10:57:28.058Z,96384.81
2019-01-08T11:00:18.042Z,96383.88
2019-01-08T11:03:04.471Z,96380.81
2019-01-08T11:05:54.280Z,96372.64
2019-01-08T11:08:36.744Z,96372.57
2019-01-08T11:11:26.596Z,96371.22
2019-01-08T11:14:12.628Z,96366.29
2019-01-08T11:17:02.510Z,96366.05
2019-01-08T11:19:52.623Z,96369.98
2019-01-08T11:22:42.444Z,96359.01
2019-01-08T11:28:36.536Z,96368.91
2019-01-08T11:31:18.686Z,96357.37
2019-01-08T11:34:08.853Z,96363.89
2019-01-08T11:36:59.022Z,96344.09
2019-01-08T11:39:49.030Z,96349.08
2019-01-08T11:42:38.903Z,96347.31
2019-01-08T11:45:28.727Z,96352.56
2019-01-08T11:48:37.017Z,96350.09
2019-01-08T11:51:26.797Z,96346.70
2019-01-08T11:57:19.459Z,96340.53
2019-01-08T12:00:01.814Z,96322.70
2019-01-08T12:02:51.613Z,96301.84
2019-01-08T12:05:34.101Z,96316.20
2019-01-08T12:08:42.948Z,96303.64
2019-01-08T12:11:26.506Z,96312.85
2019-01-08T12:14:16.298Z,96319.69
2019-01-08T12:16:58.367Z,96306.22
2019-01-08T12:19:48.461Z,96304.73
2019-01-08T12:25:33.608Z,96290.64
2019-01-08T12:28:23.395Z,96290.08
2019-01-08T12:31:06.264Z,96292.88
2019-01-08T12:33:56.381Z,96289.19
2019-01-08T12:36:38.678Z,96280.98
2019-01-08T12:39:28.447Z,96272.92
2019-01-08T12:42:10.541Z,96275.73
2019-01-08T12:45:00.315Z,96276.20
2019-01-08T12:47:42.382Z,96281.23
2019-01-08T12:50:32.545Z,96275.41
2019-01-08T12:53:15.543Z,96253.41
2019-01-08T12:56:05.573Z,96260.47
2019-01-08T12:58:47.919Z,96264.30
2019-01-08T13:01:38.012Z,96272.27
2019-01-08T13:04:20.725Z,96267.23
2019-01-08T13:07:10.805Z,96268.90
2019-01-08T13:09:53.863Z,96264.76
2019-01-08T13:12:44.003Z,96262.73
2019-01-08T13:15:30.613Z,96269.14
2019-01-08T13:18:20.627Z,96272.62
2019-01-08T13:21:03.126Z,96269.12
2019-01-08T13:23:52.900Z,96268.88
2019-01-08T13:26:35.447Z,96266.42
2019-01-08T13:32:28.177Z,96267.55
2019-01-08T13:35:18.405Z,96263.63
2019-01-08T13:38:00.770Z,96268.99
2019-01-08T13:40:43.040Z,96260.69
2019-01-08T13:43:25.900Z,96268.01
2019-01-08T13:46:15.711Z,96239.50
2019-01-08T13:49:18.854Z,96264.41
2019-01-08T13:52:01.785Z,96257.47
2019-01-08T13:54:51.542Z,96270.45
2019-01-08T13:57:34.365Z,96263.28
2019-01-08T14:00:24.147Z,96256.78
2019-01-08T14:03:06.989Z,96262.17
2019-01-08T14:05:56.771Z,96261.50
2019-01-08T14:08:39.021Z,96258.91
2019-01-08T14:11:28.787Z,96266.99
2019-01-08T14:14:11.014Z,96253.87
2019-01-08T14:17:00.790Z,96264.29
2019-01-08T14:19:43.173Z,96237.38
2019-01-08T14:22:33.263Z,96232.86
2019-01-08T14:25:15.637Z,96243.75
2019-01-08T14:28:06.259Z,96240.40
2019-01-08T14:30:49.011Z,96233.45
2019-01-08T14:39:06.760Z,96236.69
2019-01-08T14:41:56.845Z,96239.07
2019-01-08T14:44:39.354Z,96239.27
2019-01-08T14:47:29.504Z,96228.50
2019-01-08T14:50:19.387Z,96233.22
2019-01-08T14:53:09.181Z,96219.98
2019-01-08T14:55:59.002Z,96238.82
2019-01-08T14:58:48.809Z,96237.04
2019-01-08T15:01:38.632Z,96230.08
2019-01-08T15:04:28.434Z,96233.00
2019-01-08T15:07:18.212Z,96232.53
2019-01-08T15:10:08.348Z,96233.13
2019-01-08T15:12:58.114Z,96234.55
2019-01-08T15:15:40.451Z,96227.85
2019-01-08T15:18:30.230Z,96209.43
2019-01-08T15:21:20.356Z,96236.45
2019-01-08T15:24:02.406Z,96239.95
2019-01-08T15:27:04.595Z,96253.19
2019-01-08T15:29:47.111Z,96241.84
2019-01-08T15:32:37.249Z,96249.26
2019-01-08T15:35:21.152Z,96257.45
2019-01-08T15:38:10.918Z,96228.73
2019-01-08T15:43:46.734Z,96239.62
2019-01-08T15:46:35.246Z,96215.93
2019-01-08T15:49:25.324Z,96229.29
2019-01-08T15:52:08.060Z,96228.62
2019-01-08T15:54:58.114Z,96229.73
2019-01-08T15:57:41.260Z,96225.69
2019-01-08T16:00:31.378Z,96219.74
2019-01-08T16:03:14.392Z,96215.70
2019-01-08T16:06:04.512Z,96210.00
2019-01-08T16:08:46.882Z,96204.05
2019-01-08T16:11:36.930Z,96215.03
2019-01-08T16:14:19.888Z,96204.70
2019-01-08T16:17:01.975Z,96205.52
2019-01-08T16:19:51.798Z,96224.02
2019-01-08T16:25:51.650Z,96234.20
2019-01-08T16:28:34.376Z,96241.06
2019-01-08T16:31:17.314Z,96237.48
2019-01-08T16:34:07.377Z,96224.25
2019-01-08T16:36:57.636Z,96212.33
2019-01-08T16:39:48.315Z,96227.59
2019-01-08T16:42:38.197Z,96227.03
2019-01-08T16:51:07.090Z,96222.55
2019-01-08T16:53:53.373Z,96223.11
2019-01-08T16:56:42.872Z,96188.56
2019-01-08T16:59:26.472Z,96200.56
2019-01-08T17:05:08.921Z,96188.33
2019-01-08T17:08:19.265Z,96196.88
2019-01-08T17:11:03.030Z,96208.88
2019-01-08T17:16:56.283Z,96210.55
2019-01-08T17:20:06.913Z,96208.77
2019-01-08T17:22:50.747Z,96207.53
2019-01-08T17:25:21.457Z,96187.01
2019-01-08T17:28:11.237Z,96204.52
2019-01-08T17:30:53.519Z,96202.58
2019-01-08T17:33:43.689Z,96194.19
2019-01-08T17:36:33.925Z,96202.94
2019-01-08T17:39:25.032Z,96205.75
2019-01-08T17:42:08.955Z,96205.51
2019-01-08T17:44:58.711Z,96203.81
2019-01-08T17:47:41.649Z,96204.05
2019-01-08T17:50:50.451Z,96202.27
2019-01-08T17:53:32.978Z,96200.36
2019-01-08T17:56:22.777Z,96202.14
2019-01-08T17:59:08.451Z,96210.66
2019-01-08T18:02:04.431Z,96209.55
2019-01-08T18:13:56.387Z,96194.17
2019-01-08T18:16:46.652Z,96213.47
2019-01-08T18:19:30.336Z,96223.80
2019-01-08T18:22:20.145Z,96227.84
2019-01-08T18:25:02.555Z,96225.03
2019-01-08T18:30:57.815Z,96207.88
2019-01-08T18:33:51.766Z,96226.06
2019-01-08T18:36:32.598Z,96229.07
2019-01-08T18:39:22.741Z,96212.57
2019-01-08T18:42:05.255Z,96231.44
2019-01-08T18:44:54.406Z,96234.33
2019-01-08T18:47:36.627Z,96225.70
2019-01-08T18:50:45.501Z,96221.89
2019-01-08T18:53:27.581Z,96218.65
2019-01-08T18:59:23.443Z,96225.69
2019-01-08T19:02:09.685Z,96224.37
2019-01-08T19:04:52.264Z,96199.34
2019-01-08T19:07:42.010Z,96227.61
2019-01-08T19:10:24.626Z,96235.00
2019-01-08T19:13:14.391Z,96231.99
2019-01-08T19:16:04.184Z,96224.23
2019-01-08T19:18:53.974Z,96210.43
2019-01-08T19:21:40.947Z,96225.38
2019-01-08T19:24:30.712Z,96220.75
2019-01-08T19:27:13.078Z,96216.17
2019-01-08T19:30:02.834Z,96234.80
2019-01-08T19:32:45.650Z,96229.06
2019-01-08T19:35:35.452Z,96213.23
2019-01-08T19:38:18.210Z,96213.25
2019-01-08T19:41:08.239Z,96210.98
2019-01-08T19:43:50.354Z,96210.77
2019-01-08T19:46:21.090Z,96217.27
2019-01-08T19:49:10.860Z,96220.86
2019-01-08T19:51:53.718Z,96215.72
2019-01-08T19:54:43.562Z,96215.04
2019-01-08T19:57:33.408Z,96216.94
2019-01-08T20:00:23.274Z,96191.69
2019-01-08T20:03:13.076Z,96212.89
2019-01-08T20:06:02.900Z,96190.91
2019-01-08T20:11:47.613Z,96195.73
2019-01-08T20:14:37.513Z,96205.94
2019-01-08T20:17:27.500Z,96208.83
2019-01-08T20:20:17.346Z,96184.05
2019-01-08T20:23:07.306Z,96209.30
2019-01-08T20:25:57.441Z,96206.84
2019-01-08T20:28:47.289Z,96199.00
2019-01-08T20:31:37.149Z,96184.97
2019-01-08T20:34:46.065Z,96186.76
2019-01-08T20:37:36.409Z,96181.17
2019-01-08T20:40:26.228Z,96185.65
2019-01-08T20:43:16.058Z,96190.68
2019-01-08T20:49:13.599Z,96139.44
2019-01-08T20:51:56.143Z,96167.24
2019-01-08T20:54:45.911Z,96167.92
2019-01-08T20:57:55.914Z,96173.30
2019-01-08T21:00:38.481Z,96148.42
2019-01-08T21:03:28.242Z,96152.92
2019-01-08T21:06:10.609Z,96141.46
2019-01-08T21:11:47.309Z,96138.78
2019-01-08T21:14:37.245Z,96132.16
2019-01-08T21:17:27.035Z,96115.67
2019-01-08T21:20:16.805Z,96100.56
2019-01-08T21:23:06.571Z,96123.33
2019-01-08T21:25:49.117Z,96110.52
2019-01-08T21:28:38.854Z,96102.12
2019-01-08T21:31:22.931Z,96129.02
2019-01-08T21:34:12.711Z,96122.66
2019-01-08T21:36:54.873Z,96137.31
2019-01-08T21:39:44.734Z,96129.48
2019-01-08T21:42:28.479Z,96124.54
2019-01-08T21:45:18.230Z,96132.95
2019-01-08T21:48:00.810Z,96139.92
2019-01-08T21:50:50.680Z,96140.47
2019-01-08T21:53:37.337Z,96121.40
2019-01-08T21:56:27.083Z,96152.03
2019-01-08T21:59:10.520Z,96141.69
2019-01-08T22:02:00.288Z,96142.15
2019-01-08T22:04:42.271Z,96133.28
2019-01-08T22:07:32.042Z,96130.36
2019-01-08T22:10:14.333Z,96124.66
2019-01-08T22:13:04.120Z,96117.03
2019-01-08T22:15:48.772Z,96114.00
2019-01-08T22:18:38.515Z,96114.34
2019-01-08T22:21:20.776Z,96099.22
2019-01-08T22:24:10.536Z,96098.08
2019-01-08T22:26:52.508Z,96088.88
2019-01-08T22:29:42.253Z,96094.83
2019-01-08T22:32:26.763Z,96082.05
2019-01-08T22:35:16.519Z,96067.50
2019-01-08T22:38:00.823Z,96054.48
2019-01-08T22:40:50.614Z,96056.62
2019-01-08T22:43:33.291Z,96061.01
2019-01-08T22:46:23.048Z,96060.77
2019-01-08T22:49:05.145Z,96040.70
2019-01-08T22:51:54.884Z,96051.23
2019-01-08T22:54:37.312Z,96044.16
2019-01-08T22:57:27.060Z,96051.36
2019-01-08T23:00:33.215Z,96047.77
2019-01-08T23:03:41.770Z,96040.05
2019-01-08T23:06:25.123Z,96033.75
2019-01-08T23:09:35.576Z,96031.18
2019-01-08T23:12:17.676Z,96037.12
2019-01-08T23:15:07.870Z,96039.25
2019-01-08T23:17:51.114Z,96032.97
2019-01-08T23:23:45.963Z,96019.75
2019-01-08T23:26:35.858Z,96014.69
2019-01-08T23:29:25.706Z,96022.53
2019-01-08T23:32:15.662Z,96018.73
2019-01-08T23:35:05.637Z,96018.05
2019-01-08T23:37:55.388Z,96021.42
2019-01-08T23:40:37.456Z,96016.27
2019-01-08T23:43:27.263Z,96020.42
2019-01-08T23:46:09.868Z,96030.07
2019-01-08T23:48:59.622Z,96027.94
2019-01-08T23:55:06.112Z,96022.57
2019-01-08T23:58:16.453Z,96014.73
